| time (UTC) | temp F | wind direction | speed MPH | gust MPH | rain 1hr in | rain 24hr in | rain mn in | humidity % | barometer mb |
| 20260510043042 | 56 | 334 | 0.0 | 2.0 | 0.00 | 0.00 | 0.00 | 54 | 1008.8 |
| 20260510041537 | 56 | 148 | 0.0 | 0.0 | 0.00 | 0.00 | 0.00 | 55 | 1008.8 |
| 20260510040036 | 56 | 148 | 0.0 | 0.0 | 0.00 | 0.00 | 0.00 | 57 | 1008.6 |
| 20260510034539 | 56 | 148 | 0.0 | 0.0 | 0.00 | 0.00 | 0.00 | 59 | 1008.7 |
| 20260510033031 | 57 | 148 | 0.0 | 0.0 | 0.00 | 0.00 | 0.00 | 59 | 1008.6 |
| 20260510031539 | 58 | 148 | 0.0 | 0.0 | 0.00 | 0.00 | 0.00 | 59 | 1008.4 |
| 20260510030026 | 58 | 148 | 0.0 | 0.0 | 0.00 | 0.00 | 0.00 | 60 | 1008.6 |
| 20260510024536 | 59 | 148 | 0.0 | 0.0 | 0.00 | 0.00 | 0.00 | 61 | 1008.4 |
| 20260510023023 | 59 | 148 | 0.0 | 0.0 | 0.00 | 0.00 | 0.00 | 59 | 1008.4 |
| 20260510021523 | 60 | 148 | 0.0 | 0.0 | 0.00 | 0.00 | 0.00 | 59 | 1008.2 |
| 20260510020018 | 61 | 148 | 0.0 | 0.0 | 0.00 | 0.00 | 0.00 | 57 | 1008.0 |
| 20260510014518 | 62 | 148 | 0.0 | 0.0 | 0.00 | 0.00 | 0.00 | 56 | 1007.8 |
| 20260510013014 | 62 | 148 | 0.0 | 0.0 | 0.00 | 0.00 | 0.00 | 55 | 1007.6 |
| 20260510011512 | 63 | 148 | 0.0 | 0.0 | 0.00 | 0.00 | 0.00 | 53 | 1007.3 |
| 20260510010009 | 65 | 148 | 0.0 | 0.0 | 0.00 | 0.00 | 0.00 | 50 | 1007.1 |
| 20260510004508 | 66 | 148 | 0.0 | 0.0 | 0.00 | 0.00 | 0.00 | 48 | 1006.8 |
| 20260510003016 | 67 | 148 | 0.0 | 0.0 | 0.00 | 0.00 | 0.00 | 49 | 1006.7 |
| 20260510001504 | 68 | 153 | 0.0 | 0.0 | 0.00 | 0.00 | 0.00 | 45 | 1006.7 |
| 20260510000108 | 68 | 153 | 0.0 | 0.0 | 0.00 | 0.00 | 0.00 | 43 | 1006.6 |
| 20260509234615 | 69 | 153 | 0.0 | 0.0 | 0.00 | 0.00 | 0.00 | 42 | 1006.5 |
| 20260509233058 | 71 | 153 | 0.0 | 0.0 | 0.00 | 0.00 | 0.00 | 41 | 1006.4 |
| 20260509231556 | 72 | 153 | 0.0 | 0.0 | 0.00 | 0.00 | 0.00 | 39 | 1006.2 |
| 20260509230100 | 73 | 145 | 0.0 | 1.0 | 0.00 | 0.00 | 0.00 | 35 | 1006.4 |
| 20260509224553 | 74 | 264 | 0.0 | 0.0 | 0.00 | 0.00 | 0.00 | 37 | 1006.3 |
| 20260509223051 | 75 | 264 | 0.0 | 0.0 | 0.00 | 0.00 | 0.00 | 34 | 1006.4 |
| 20260509221548 | 73 | 264 | 0.0 | 0.0 | 0.00 | 0.00 | 0.00 | 36 | 1006.4 |
| 20260509220047 | 73 | 264 | 0.0 | 2.0 | 0.00 | 0.00 | 0.00 | 35 | 1006.4 |
| 20260509214545 | 73 | 258 | 0.0 | 3.0 | 0.00 | 0.00 | 0.00 | 36 | 1006.5 |
| 20260509213044 | 73 | 285 | 0.0 | 3.0 | 0.00 | 0.00 | 0.00 | 35 | 1006.4 |
| 20260509211540 | 74 | 290 | 3.0 | 8.0 | 0.00 | 0.00 | 0.00 | 33 | 1006.2 |
| 20260509210044 | 74 | 231 | 3.0 | 9.0 | 0.00 | 0.00 | 0.00 | 33 | 1006.3 |
| 20260509204536 | 75 | 250 | 2.0 | 10.0 | 0.00 | 0.00 | 0.00 | 32 | 1006.1 |
| 20260509203037 | 76 | 263 | 2.0 | 6.0 | 0.00 | 0.00 | 0.00 | 33 | 1006.2 |
| 20260509201525 | 75 | 271 | 4.0 | 13.0 | 0.00 | 0.00 | 0.00 | 35 | 1006.2 |
| 20260509200025 | 74 | 241 | 2.0 | 8.0 | 0.00 | 0.00 | 0.00 | 35 | 1006.2 |
| 20260509194523 | 74 | 155 | 4.0 | 9.0 | 0.00 | 0.00 | 0.00 | 36 | 1006.4 |
| 20260509193014 | 72 | 232 | 4.0 | 11.0 | 0.00 | 0.00 | 0.00 | 37 | 1006.9 |
| 20260509191508 | 71 | 243 | 3.0 | 12.0 | 0.00 | 0.00 | 0.00 | 40 | 1007.0 |
| 20260509190003 | 71 | 179 | 3.0 | 11.0 | 0.00 | 0.00 | 0.00 | 40 | 1007.4 |
| 20260509184605 | 70 | 267 | 2.0 | 7.0 | 0.00 | 0.00 | 0.00 | 42 | 1007.6 |
| 20260509183138 | 70 | 232 | 2.0 | 6.0 | 0.00 | 0.00 | 0.00 | 41 | 1007.4 |
| 20260509181610 | 69 | 214 | 0.0 | 4.0 | 0.00 | 0.00 | 0.00 | 43 | 1007.9 |
| 20260509180052 | 69 | 271 | 1.0 | 6.0 | 0.00 | 0.00 | 0.00 | 43 | 1008.3 |
| 20260509174547 | 68 | 254 | 0.0 | 5.0 | 0.00 | 0.00 | 0.00 | 44 | 1008.4 |
| 20260509173044 | 68 | 233 | 0.0 | 5.0 | 0.00 | 0.00 | 0.00 | 45 | 1008.7 |
| 20260509171544 | 69 | 271 | 2.0 | 9.0 | 0.00 | 0.00 | 0.00 | 42 | 1008.7 |
| 20260509170040 | 70 | 234 | 1.0 | 7.0 | 0.00 | 0.00 | 0.00 | 41 | 1008.6 |
| 20260509164536 | 69 | 230 | 3.0 | 9.0 | 0.00 | 0.00 | 0.00 | 42 | 1008.6 |
| 20260509163033 | 67 | 289 | 1.0 | 6.0 | 0.00 | 0.00 | 0.00 | 45 | 1008.9 |
| 20260509161534 | 67 | 248 | 3.0 | 11.0 | 0.00 | 0.00 | 0.00 | 44 | 1009.0 |
| 20260509160028 | 67 | 209 | 4.0 | 10.0 | 0.00 | 0.00 | 0.00 | 44 | 1008.9 |
| 20260509154525 | 67 | 230 | 4.0 | 9.0 | 0.00 | 0.00 | 0.00 | 42 | 1008.9 |
| 20260509153022 | 67 | 153 | 5.0 | 11.0 | 0.00 | 0.00 | 0.00 | 42 | 1009.2 |
| 20260509151518 | 66 | 270 | 4.0 | 8.0 | 0.00 | 0.00 | 0.00 | 43 | 1009.1 |
| 20260509150017 | 66 | 280 | 2.0 | 7.0 | 0.00 | 0.00 | 0.00 | 44 | 1009.2 |
| 20260509144525 | 64 | 240 | 4.0 | 8.0 | 0.00 | 0.00 | 0.00 | 43 | 1009.3 |
| 20260509143008 | 63 | 226 | 4.0 | 9.0 | 0.00 | 0.00 | 0.00 | 45 | 1009.6 |
| 20260509141507 | 62 | 139 | 2.0 | 6.0 | 0.00 | 0.00 | 0.00 | 46 | 1009.7 |
| 20260509140001 | 61 | 176 | 4.0 | 9.0 | 0.00 | 0.00 | 0.00 | 46 | 1009.8 |
| 20260509134601 | 60 | 250 | 2.0 | 6.0 | 0.00 | 0.00 | 0.00 | 47 | 1009.7 |
| 20260509133051 | 58 | 278 | 0.0 | 4.0 | 0.00 | 0.00 | 0.00 | 49 | 1009.8 |
| 20260509131547 | 57 | 246 | 0.0 | 6.0 | 0.00 | 0.00 | 0.00 | 49 | 1009.8 |
| 20260509130045 | 57 | 265 | 0.0 | 5.0 | 0.00 | 0.00 | 0.00 | 49 | 1009.8 |
| 20260509124639 | 57 | 218 | 0.0 | 7.0 | 0.00 | 0.00 | 0.00 | 49 | 1009.8 |
| 20260509123036 | 56 | 229 | 1.0 | 4.0 | 0.00 | 0.00 | 0.00 | 50 | 1010.0 |
| 20260509121537 | 56 | 209 | 0.0 | 2.0 | 0.00 | 0.00 | 0.00 | 50 | 1009.9 |
| 20260509120031 | 56 | 238 | 0.0 | 2.0 | 0.00 | 0.00 | 0.00 | 49 | 1010.0 |
| 20260509114529 | 56 | 220 | 0.0 | 2.0 | 0.00 | 0.00 | 0.00 | 49 | 1009.8 |
| 20260509113028 | 55 | 223 | 0.0 | 4.0 | 0.00 | 0.00 | 0.00 | 48 | 1009.8 |
| 20260509111525 | 55 | 229 | 0.0 | 2.0 | 0.00 | 0.00 | 0.00 | 49 | 1009.7 |
| 20260509110020 | 0 | 0.0 | 0.0 | 0.00 | 0.00 | 0.00 | 1009.6 | ||
| 20260509104525 | 0 | 0.0 | 0.0 | 0.00 | 0.00 | 0.00 | 1009.6 | ||
| 20260509103009 | 0 | 0.0 | 0.0 | 0.00 | 0.00 | 0.00 | 1009.4 | ||
| 20260509101504 | 0 | 212 | 0.0 | 3.0 | 0.00 | 0.00 | 0.00 | 1009.4 | |
| 20260509100004 | 56 | 247 | 1.0 | 4.0 | 0.00 | 0.00 | 0.00 | 46 | 1009.3 |
| 20260509094600 | 56 | 251 | 0.0 | 2.0 | 0.00 | 0.00 | 0.00 | 46 | 1009.3 |
| 20260509094500 | 56 | 259 | 0.0 | 2.0 | 0.00 | 0.00 | 0.00 | 46 | 1009.3 |
| 20260509093059 | 56 | 250 | 1.0 | 4.0 | 0.00 | 0.00 | 0.00 | 46 | 1009.4 |
| 20260509091555 | 55 | 253 | 0.0 | 4.0 | 0.00 | 0.00 | 0.00 | 46 | 1009.6 |
| 20260509090052 | 55 | 220 | 1.0 | 5.0 | 0.00 | 0.00 | 0.00 | 46 | 1009.7 |
| 20260509084554 | 55 | 219 | 1.0 | 6.0 | 0.00 | 0.00 | 0.00 | 47 | 1009.7 |
| 20260509083046 | 55 | 289 | 1.0 | 7.0 | 0.00 | 0.00 | 0.00 | 46 | 1009.7 |
| 20260509081545 | 55 | 200 | 1.0 | 7.0 | 0.00 | 0.00 | 0.00 | 46 | 1009.8 |
| 20260509080051 | 55 | 180 | 1.0 | 7.0 | 0.00 | 0.00 | 0.00 | 47 | 1010.1 |
| 20260509074539 | 55 | 174 | 1.0 | 6.0 | 0.00 | 0.00 | 0.00 | 47 | 1010.2 |
| 20260509073039 | 55 | 175 | 2.0 | 4.0 | 0.00 | 0.00 | 0.00 | 46 | 1010.2 |
| 20260509071533 | 55 | 200 | 0.0 | 5.0 | 0.00 | 0.00 | 0.00 | 45 | 1010.2 |
| 20260509070031 | 56 | 217 | 1.0 | 5.0 | 0.00 | 0.00 | 0.00 | 44 | 1010.1 |
| 20260509064528 | 56 | 196 | 1.0 | 7.0 | 0.00 | 0.00 | 0.00 | 44 | 1010.1 |
| 20260509063026 | 56 | 210 | 2.0 | 5.0 | 0.00 | 0.00 | 0.00 | 44 | 1010.3 |
| 20260509061524 | 56 | 231 | 3.0 | 6.0 | 0.00 | 0.00 | 0.00 | 44 | 1010.4 |
| 20260509060024 | 55 | 246 | 1.0 | 5.0 | 0.00 | 0.00 | 0.00 | 45 | 1010.6 |
| 20260509054519 | 55 | 229 | 0.0 | 1.0 | 0.00 | 0.00 | 0.00 | 45 | 1010.6 |
| 20260509053028 | 56 | 222 | 0.0 | 3.0 | 0.00 | 0.00 | 0.00 | 44 | 1010.5 |
| 20260509051521 | 56 | 257 | 0.0 | 3.0 | 0.00 | 0.00 | 0.00 | 44 | 1010.7 |
| 20260509050016 | 56 | 274 | 2.0 | 6.0 | 0.00 | 0.00 | 0.00 | 43 | 1010.6 |
| 20260509044509 | 56 | 228 | 0.0 | 5.0 | 0.00 | 0.00 | 0.00 | 43 | 1010.4 |